createdAt,value
2023-02-06T00:00:53.549Z,1.50
2023-02-06T00:03:20.782Z,1.70
2023-02-06T00:05:56.037Z,1.20
2023-02-06T00:08:23.131Z,1.35
2023-02-06T00:10:50.296Z,1.10
2023-02-06T00:13:17.509Z,1.30
2023-02-06T00:15:44.665Z,1.20
2023-02-06T00:18:12.039Z,1.10
2023-02-06T00:20:39.028Z,1.60
2023-02-06T00:23:06.095Z,1.30
2023-02-06T00:25:33.505Z,1.58
2023-02-06T00:28:00.655Z,1.45
2023-02-06T00:30:27.673Z,1.52
2023-02-06T00:32:54.635Z,2.58
2023-02-06T00:35:21.581Z,1.60
2023-02-06T00:37:48.766Z,1.27
2023-02-06T00:40:15.690Z,1.08
2023-02-06T00:42:42.652Z,1.88
2023-02-06T00:45:10.240Z,1.27
2023-02-06T00:47:37.378Z,1.08
2023-02-06T00:50:04.759Z,1.20
2023-02-06T00:52:31.950Z,1.13
2023-02-06T00:54:58.934Z,1.73
2023-02-06T00:57:25.934Z,1.10
2023-02-06T00:59:54.435Z,1.27
2023-02-06T01:02:21.500Z,1.50
2023-02-06T01:04:48.709Z,1.30
2023-02-06T01:07:15.687Z,1.13
2023-02-06T01:09:42.611Z,1.50
2023-02-06T01:12:09.539Z,1.20
2023-02-06T01:14:36.536Z,1.02
2023-02-06T01:17:03.737Z,1.25
2023-02-06T01:19:30.720Z,1.00
2023-02-06T01:21:58.557Z,1.15
2023-02-06T01:24:25.496Z,0.98
2023-02-06T01:26:52.491Z,0.82
2023-02-06T01:29:19.461Z,0.98
2023-02-06T01:31:46.488Z,0.70
2023-02-06T01:34:13.618Z,1.30
2023-02-06T01:36:40.820Z,1.00
2023-02-06T01:39:08.153Z,0.85
2023-02-06T01:41:35.088Z,1.10
2023-02-06T01:44:12.277Z,1.10
2023-02-06T01:46:42.140Z,0.90
2023-02-06T01:49:13.650Z,1.15
2023-02-06T01:51:41.036Z,0.90
2023-02-06T01:54:09.848Z,0.80
2023-02-06T01:56:49.934Z,1.00
2023-02-06T01:59:17.118Z,0.82
2023-02-06T02:01:44.441Z,1.00
2023-02-06T02:04:19.196Z,0.63
2023-02-06T02:06:58.382Z,0.80
2023-02-06T02:09:25.999Z,1.15
2023-02-06T02:11:53.147Z,0.98
2023-02-06T02:14:20.069Z,0.90
2023-02-06T02:17:15.320Z,1.00
2023-02-06T02:19:54.512Z,0.95
2023-02-06T02:22:50.429Z,0.70
2023-02-06T02:25:38.593Z,0.90
2023-02-06T02:28:24.506Z,0.95
2023-02-06T02:30:57.327Z,0.85
2023-02-06T02:34:00.969Z,0.85
2023-02-06T02:36:41.369Z,0.90
2023-02-06T02:39:24.865Z,0.77
2023-02-06T02:41:58.977Z,1.00
2023-02-06T02:44:52.138Z,0.80
2023-02-06T02:47:23.718Z,1.00
2023-02-06T02:49:50.864Z,1.30
2023-02-06T02:52:19.696Z,1.23
2023-02-06T02:54:46.633Z,0.70
2023-02-06T02:57:18.823Z,1.00
2023-02-06T02:59:49.421Z,1.00
2023-02-06T03:02:28.756Z,0.90
2023-02-06T03:05:06.643Z,1.02
2023-02-06T03:07:55.446Z,0.80
2023-02-06T03:10:52.073Z,0.63
2023-02-06T03:13:38.726Z,0.82
2023-02-06T03:16:22.930Z,0.73
2023-02-06T03:19:17.017Z,1.00
2023-02-06T03:21:45.754Z,0.80
2023-02-06T03:24:24.553Z,0.95
2023-02-06T03:26:57.524Z,1.02
2023-02-06T03:29:26.051Z,0.80
2023-02-06T03:31:57.579Z,1.55
2023-02-06T03:34:58.807Z,0.60
2023-02-06T03:37:27.098Z,0.68
2023-02-06T03:39:54.879Z,0.90
2023-02-06T03:42:23.129Z,0.90
2023-02-06T03:44:59.814Z,0.80
2023-02-06T03:47:28.710Z,0.70
2023-02-06T03:49:58.965Z,0.90
2023-02-06T03:52:32.133Z,1.10
2023-02-06T03:55:03.944Z,1.30
2023-02-06T03:57:32.970Z,0.85
2023-02-06T03:59:59.985Z,1.02
2023-02-06T04:02:27.519Z,0.88
2023-02-06T04:04:54.482Z,0.90
2023-02-06T04:07:30.425Z,0.80
2023-02-06T04:09:57.528Z,1.90
2023-02-06T04:12:24.704Z,1.02
2023-02-06T04:14:52.591Z,0.90
2023-02-06T04:17:38.446Z,0.93
2023-02-06T04:20:07.308Z,1.00
2023-02-06T04:22:34.303Z,1.00
2023-02-06T04:25:01.270Z,0.80
2023-02-06T04:27:28.701Z,1.10
2023-02-06T04:29:55.672Z,1.50
2023-02-06T04:32:22.620Z,1.00
2023-02-06T04:34:49.647Z,0.95
2023-02-06T04:37:16.698Z,0.73
2023-02-06T04:39:44.050Z,0.60
2023-02-06T04:42:10.996Z,0.90
2023-02-06T04:44:38.565Z,0.85
2023-02-06T04:47:05.613Z,1.00
2023-02-06T04:49:32.579Z,1.05
2023-02-06T04:51:59.804Z,1.00
2023-02-06T04:54:26.870Z,0.90
2023-02-06T04:56:53.909Z,1.08
2023-02-06T04:59:21.003Z,1.27
2023-02-06T05:01:48.357Z,0.80
2023-02-06T05:04:15.376Z,0.90
2023-02-06T05:06:42.361Z,1.30
2023-02-06T05:09:09.952Z,0.90
2023-02-06T05:11:36.948Z,0.98
2023-02-06T05:14:03.914Z,0.90
2023-02-06T05:16:30.998Z,1.10
2023-02-06T05:18:58.205Z,0.80
2023-02-06T05:21:26.665Z,0.82
2023-02-06T05:23:53.741Z,0.98
2023-02-06T05:26:21.094Z,0.90
2023-02-06T05:28:48.093Z,0.80
2023-02-06T05:31:21.052Z,0.80
2023-02-06T05:33:52.572Z,1.27
2023-02-06T05:36:20.966Z,0.70
2023-02-06T05:38:48.765Z,0.90
2023-02-06T05:41:16.830Z,1.05
2023-02-06T05:43:43.810Z,1.10
2023-02-06T05:46:13.029Z,0.90
2023-02-06T05:48:40.823Z,1.10
2023-02-06T05:51:07.882Z,1.20
2023-02-06T05:53:34.922Z,1.42
2023-02-06T05:56:02.031Z,1.33
2023-02-06T05:58:29.038Z,1.20
2023-02-06T06:00:56.082Z,1.00
2023-02-06T06:03:23.018Z,1.48
2023-02-06T06:05:50.019Z,1.23
2023-02-06T06:08:17.291Z,2.13
2023-02-06T06:10:44.419Z,1.00
2023-02-06T06:13:11.492Z,1.00
2023-02-06T06:15:38.740Z,1.00
2023-02-06T06:18:05.793Z,0.90
2023-02-06T06:20:32.744Z,0.85
2023-02-06T06:22:59.836Z,1.00
2023-02-06T06:25:26.884Z,0.90
2023-02-06T06:27:54.071Z,0.98
2023-02-06T06:30:21.184Z,1.10
2023-02-06T06:32:48.376Z,1.00
2023-02-06T06:35:15.656Z,0.82
2023-02-06T06:37:42.620Z,0.88
2023-02-06T06:40:09.997Z,0.90
2023-02-06T06:42:36.969Z,0.88
2023-02-06T06:45:04.893Z,0.70
2023-02-06T06:47:32.582Z,1.00
2023-02-06T06:49:59.622Z,1.20
2023-02-06T06:52:26.841Z,1.17
2023-02-06T06:54:54.227Z,0.80
2023-02-06T06:57:22.502Z,1.10
2023-02-06T06:59:49.938Z,0.95
2023-02-06T07:02:17.269Z,1.17
2023-02-06T07:04:44.503Z,1.05
2023-02-06T07:07:11.570Z,1.00
2023-02-06T07:09:38.549Z,1.23
2023-02-06T07:12:05.891Z,0.98
2023-02-06T07:14:33.063Z,0.90
2023-02-06T07:17:01.775Z,1.40
2023-02-06T07:19:28.959Z,1.50
2023-02-06T07:21:56.114Z,1.65
2023-02-06T07:24:23.257Z,1.00
2023-02-06T07:26:50.471Z,1.10
2023-02-06T07:29:17.447Z,0.88
2023-02-06T07:31:44.468Z,0.95
2023-02-06T07:34:12.695Z,1.23
2023-02-06T07:36:39.632Z,0.75
2023-02-06T07:39:06.612Z,1.08
2023-02-06T07:41:33.789Z,0.82
2023-02-06T07:44:01.345Z,1.02
2023-02-06T07:46:28.370Z,0.80
2023-02-06T07:48:55.355Z,0.95
2023-02-06T07:51:23.154Z,1.08
2023-02-06T07:53:53.580Z,0.90
2023-02-06T07:56:23.289Z,1.02
2023-02-06T07:58:52.032Z,1.00
2023-02-06T08:01:20.268Z,1.50
2023-02-06T08:03:53.654Z,1.25
2023-02-06T08:06:24.350Z,1.17
2023-02-06T08:08:54.634Z,0.95
2023-02-06T08:11:23.855Z,1.23
2023-02-06T08:13:50.863Z,0.95
2023-02-06T08:16:23.165Z,0.95
2023-02-06T08:18:50.543Z,1.00
2023-02-06T08:21:20.906Z,0.80
2023-02-06T08:23:53.533Z,0.93
2023-02-06T08:26:22.031Z,1.23
2023-02-06T08:28:50.534Z,1.00
2023-02-06T08:31:19.420Z,2.03
2023-02-06T08:33:47.123Z,1.08
2023-02-06T08:36:15.618Z,1.10
2023-02-06T08:38:42.694Z,1.25
2023-02-06T08:41:22.206Z,1.00
2023-02-06T08:43:51.268Z,1.08
2023-02-06T08:46:20.319Z,1.42
2023-02-06T08:48:47.322Z,1.10
2023-02-06T08:51:15.363Z,1.00
2023-02-06T08:53:42.301Z,1.35
2023-02-06T08:56:12.515Z,1.95
2023-02-06T08:58:40.707Z,2.30
2023-02-06T09:01:09.496Z,1.67
2023-02-06T09:03:36.732Z,1.90
2023-02-06T09:06:09.962Z,1.92
2023-02-06T09:08:38.287Z,3.72
2023-02-06T09:11:10.033Z,3.10
2023-02-06T09:13:37.654Z,2.40
2023-02-06T09:16:05.351Z,3.10
2023-02-06T09:18:32.418Z,2.35
2023-02-06T09:21:13.325Z,2.00
2023-02-06T09:23:43.841Z,1.70
2023-02-06T09:26:12.226Z,1.52
2023-02-06T09:28:39.793Z,1.50
2023-02-06T09:31:10.502Z,1.40
2023-02-06T09:33:38.845Z,1.38
2023-02-06T09:36:07.125Z,1.35
2023-02-06T09:38:35.157Z,1.15
2023-02-06T09:41:05.907Z,1.02
2023-02-06T09:43:34.069Z,0.90
2023-02-06T09:46:03.907Z,0.93
2023-02-06T09:48:34.944Z,0.98
2023-02-06T09:51:29.649Z,0.77
2023-02-06T09:53:59.922Z,0.80
2023-02-06T09:56:55.299Z,0.80
2023-02-06T09:59:32.915Z,0.60
2023-02-06T10:02:41.018Z,0.63
2023-02-06T10:05:13.830Z,0.60
2023-02-06T10:07:52.247Z,0.30
2023-02-06T10:10:41.394Z,0.60
2023-02-06T10:13:20.583Z,0.60
2023-02-06T10:15:50.482Z,0.65
2023-02-06T10:18:24.586Z,0.80
2023-02-06T10:20:58.666Z,0.90
2023-02-06T10:24:06.764Z,1.02
2023-02-06T10:26:37.811Z,0.90
2023-02-06T10:29:05.886Z,0.95
2023-02-06T10:31:45.221Z,1.10
2023-02-06T10:34:39.622Z,1.10
2023-02-06T10:37:24.776Z,1.00
2023-02-06T10:40:17.474Z,0.93
2023-02-06T10:43:08.064Z,0.82
2023-02-06T10:46:20.531Z,0.70
2023-02-06T10:48:54.354Z,0.98
2023-02-06T10:51:52.817Z,0.95
2023-02-06T10:54:25.258Z,1.08
2023-02-06T10:56:55.735Z,0.80
2023-02-06T10:59:29.401Z,1.00
2023-02-06T11:02:07.977Z,0.95
2023-02-06T11:04:39.131Z,0.80
2023-02-06T11:07:18.649Z,0.82
2023-02-06T11:09:45.636Z,0.88
2023-02-06T11:12:37.316Z,0.80
2023-02-06T11:15:16.941Z,0.60
2023-02-06T11:17:45.630Z,1.00
2023-02-06T11:20:25.386Z,0.52
2023-02-06T11:22:53.646Z,0.60
2023-02-06T11:25:33.681Z,0.68
2023-02-06T11:28:01.522Z,0.50
2023-02-06T11:30:35.445Z,0.82
2023-02-06T11:33:22.765Z,0.60
2023-02-06T11:35:59.145Z,0.70
2023-02-06T11:38:29.487Z,0.47
2023-02-06T11:41:06.019Z,0.70
2023-02-06T11:43:42.946Z,0.90
2023-02-06T11:46:19.275Z,0.85
2023-02-06T11:49:03.523Z,0.55
2023-02-06T11:51:51.487Z,0.80
2023-02-06T11:54:35.802Z,0.73
2023-02-06T11:57:21.725Z,0.30
2023-02-06T11:59:55.015Z,0.30
2023-02-06T12:02:35.195Z,0.35
2023-02-06T12:05:18.246Z,0.45
2023-02-06T12:07:57.108Z,0.30
2023-02-06T12:10:25.489Z,0.40
2023-02-06T12:12:58.017Z,0.55
2023-02-06T12:15:46.107Z,0.20
2023-02-06T12:18:35.959Z,0.70
2023-02-06T12:21:06.489Z,0.70
2023-02-06T12:23:55.536Z,0.80
2023-02-06T12:26:25.239Z,0.35
2023-02-06T12:29:08.187Z,0.30
2023-02-06T12:31:53.894Z,0.40
2023-02-06T12:34:28.469Z,0.30
2023-02-06T12:37:14.395Z,0.30
2023-02-06T12:39:43.620Z,0.20
2023-02-06T12:42:34.308Z,0.20
2023-02-06T12:45:23.272Z,0.22
2023-02-06T12:47:59.786Z,0.28
2023-02-06T12:50:38.674Z,0.32
2023-02-06T12:53:44.962Z,0.32
2023-02-06T12:56:14.891Z,0.52
2023-02-06T12:58:44.551Z,0.35
2023-02-06T13:01:31.589Z,0.20
2023-02-06T13:04:05.093Z,0.50
2023-02-06T13:07:05.232Z,0.38
2023-02-06T13:09:41.505Z,0.43
2023-02-06T13:12:24.584Z,0.55
2023-02-06T13:15:08.102Z,0.80
2023-02-06T13:17:45.054Z,0.30
2023-02-06T13:20:15.007Z,0.30
2023-02-06T13:22:51.853Z,0.38
2023-02-06T13:25:30.921Z,0.50
2023-02-06T13:28:22.296Z,0.40
2023-02-06T13:31:23.639Z,0.60
2023-02-06T13:34:02.242Z,0.60
2023-02-06T13:36:51.316Z,0.70
2023-02-06T13:39:46.780Z,0.52
2023-02-06T13:42:49.133Z,0.50
2023-02-06T13:45:25.109Z,0.60
2023-02-06T13:48:03.774Z,0.43
2023-02-06T13:50:57.539Z,0.47
2023-02-06T13:53:51.759Z,0.70
2023-02-06T13:56:21.561Z,0.50
2023-02-06T13:58:54.275Z,0.60
2023-02-06T14:01:26.360Z,0.50
2023-02-06T14:03:54.398Z,0.50
2023-02-06T14:06:46.209Z,0.57
2023-02-06T14:09:54.684Z,0.50
2023-02-06T14:12:51.009Z,0.50
2023-02-06T14:15:56.547Z,0.40
2023-02-06T14:19:11.205Z,0.40
2023-02-06T14:21:48.727Z,1.05
2023-02-06T14:24:15.652Z,0.40
2023-02-06T14:26:45.347Z,0.60
2023-02-06T14:29:38.129Z,0.50
2023-02-06T14:32:24.403Z,0.50
2023-02-06T14:35:19.441Z,0.50
2023-02-06T14:38:02.194Z,0.50
2023-02-06T14:40:39.156Z,0.20
2023-02-06T14:43:11.354Z,0.35
2023-02-06T14:45:42.837Z,0.40
2023-02-06T14:48:39.527Z,0.43
2023-02-06T14:51:08.129Z,0.40
2023-02-06T14:53:40.757Z,0.30
2023-02-06T14:56:17.606Z,0.30
2023-02-06T14:58:48.736Z,0.30
2023-02-06T15:01:18.384Z,0.40
2023-02-06T15:03:47.368Z,0.20
2023-02-06T15:06:35.017Z,0.38
2023-02-06T15:09:02.423Z,0.30
2023-02-06T15:11:32.800Z,0.40
2023-02-06T15:14:05.888Z,0.45
2023-02-06T15:16:49.292Z,0.60
2023-02-06T15:19:20.814Z,0.40
2023-02-06T15:21:49.259Z,0.22
2023-02-06T15:24:31.314Z,0.60
2023-02-06T15:27:15.150Z,0.70
2023-02-06T15:29:50.845Z,0.43
2023-02-06T15:32:38.958Z,0.50
2023-02-06T15:35:32.289Z,0.60
2023-02-06T15:38:14.832Z,0.57
2023-02-06T15:40:49.190Z,0.45
2023-02-06T15:43:25.458Z,0.50
2023-02-06T15:45:57.806Z,0.70
2023-02-06T15:48:34.008Z,0.70
2023-02-06T15:51:41.897Z,0.50
2023-02-06T15:54:16.242Z,0.30
2023-02-06T15:56:47.888Z,0.50
2023-02-06T15:59:20.874Z,0.38
2023-02-06T16:01:49.034Z,0.40
2023-02-06T16:04:24.347Z,0.50
2023-02-06T16:07:22.447Z,0.40
2023-02-06T16:10:08.320Z,0.60
2023-02-06T16:12:37.727Z,0.70
2023-02-06T16:15:34.030Z,0.50
2023-02-06T16:18:19.708Z,0.57
2023-02-06T16:20:46.834Z,0.50
2023-02-06T16:23:24.396Z,0.70
2023-02-06T16:26:13.036Z,0.60
2023-02-06T16:29:01.946Z,0.75
2023-02-06T16:31:31.181Z,0.57
2023-02-06T16:34:05.099Z,0.60
2023-02-06T16:36:33.422Z,1.20
2023-02-06T16:39:04.343Z,1.10
2023-02-06T16:41:34.968Z,0.95
2023-02-06T16:44:03.294Z,1.55
2023-02-06T16:46:30.980Z,1.02
2023-02-06T16:48:59.815Z,1.08
2023-02-06T16:51:29.775Z,0.90
2023-02-06T16:53:58.050Z,0.70
2023-02-06T16:56:25.180Z,0.68
2023-02-06T16:58:52.116Z,0.80
2023-02-06T17:01:24.879Z,0.70
2023-02-06T17:03:52.509Z,1.02
2023-02-06T17:06:27.963Z,1.10
2023-02-06T17:08:58.931Z,0.98
2023-02-06T17:11:25.897Z,1.50
2023-02-06T17:13:52.860Z,1.50
2023-02-06T17:16:22.754Z,1.40
2023-02-06T17:18:50.413Z,1.20
2023-02-06T17:21:20.049Z,1.00
2023-02-06T17:23:49.481Z,1.88
2023-02-06T17:26:19.544Z,1.75
2023-02-06T17:28:47.320Z,1.58
2023-02-06T17:31:14.692Z,1.50
2023-02-06T17:33:41.858Z,1.58
2023-02-06T17:36:22.406Z,1.27
2023-02-06T17:38:49.755Z,1.88
2023-02-06T17:41:16.674Z,2.72
2023-02-06T17:43:43.665Z,2.42
2023-02-06T17:46:11.705Z,2.17
2023-02-06T17:48:42.754Z,2.50
2023-02-06T17:51:10.926Z,2.05
2023-02-06T17:53:38.054Z,2.22
2023-02-06T17:56:07.471Z,3.50
2023-02-06T17:58:34.883Z,2.42
2023-02-06T18:01:01.828Z,2.33
2023-02-06T18:03:28.835Z,2.15
2023-02-06T18:06:00.069Z,1.73
2023-02-06T18:08:28.445Z,1.80
2023-02-06T18:10:56.101Z,1.60
2023-02-06T18:13:24.509Z,2.00
2023-02-06T18:15:56.604Z,2.10
2023-02-06T18:18:24.639Z,1.70
2023-02-06T18:20:52.328Z,1.90
2023-02-06T18:23:19.602Z,2.33
2023-02-06T18:25:46.615Z,2.45
2023-02-06T18:28:14.934Z,2.00
2023-02-06T18:30:42.388Z,2.10
2023-02-06T18:33:11.330Z,1.92
2023-02-06T18:35:39.593Z,1.88
2023-02-06T18:38:09.944Z,2.50
2023-02-06T18:40:41.325Z,3.20
2023-02-06T18:43:08.680Z,3.05
2023-02-06T18:45:38.585Z,3.33
2023-02-06T18:48:07.971Z,2.80
2023-02-06T18:50:37.911Z,3.03
2023-02-06T18:53:05.094Z,3.33
2023-02-06T18:55:34.988Z,3.67
2023-02-06T18:58:03.066Z,3.08
2023-02-06T19:00:30.601Z,3.30
2023-02-06T19:03:01.182Z,2.60
2023-02-06T19:05:31.873Z,2.53
2023-02-06T19:07:58.829Z,2.58
2023-02-06T19:10:25.906Z,3.22
2023-02-06T19:12:53.023Z,2.60
2023-02-06T19:15:20.157Z,2.50
2023-02-06T19:17:47.407Z,2.45
2023-02-06T19:20:14.466Z,3.28
2023-02-06T19:22:41.393Z,3.10
2023-02-06T19:25:12.069Z,3.30
2023-02-06T19:27:40.378Z,3.50
2023-02-06T19:30:08.308Z,2.95
2023-02-06T19:32:35.612Z,3.53
2023-02-06T19:35:03.880Z,3.15
2023-02-06T19:37:31.585Z,2.75
2023-02-06T19:39:58.505Z,2.83
2023-02-06T19:42:25.557Z,2.92
2023-02-06T19:44:54.844Z,2.53
2023-02-06T19:47:22.660Z,2.50
2023-02-06T19:49:51.823Z,2.88
2023-02-06T19:52:18.959Z,2.90
2023-02-06T19:54:47.792Z,2.50
2023-02-06T19:57:16.118Z,2.50
2023-02-06T19:59:43.276Z,2.45
2023-02-06T20:02:14.515Z,3.47
2023-02-06T20:04:41.899Z,3.35
2023-02-06T20:07:08.868Z,3.85
2023-02-06T20:09:41.141Z,4.18
2023-02-06T20:12:10.249Z,3.72
2023-02-06T20:14:37.173Z,4.45
2023-02-06T20:17:05.477Z,3.88
2023-02-06T20:19:32.480Z,3.60
2023-02-06T20:22:00.541Z,4.07
2023-02-06T20:24:30.462Z,3.45
2023-02-06T20:27:00.745Z,3.67
2023-02-06T20:29:31.510Z,3.95
2023-02-06T20:31:58.713Z,3.50
2023-02-06T20:34:26.988Z,3.33
2023-02-06T20:36:54.583Z,3.50
2023-02-06T20:39:21.882Z,4.38
2023-02-06T20:41:50.336Z,3.28
2023-02-06T20:44:18.460Z,2.72
2023-02-06T20:46:46.068Z,3.85
2023-02-06T20:49:22.054Z,3.30
2023-02-06T20:51:49.585Z,3.88
2023-02-06T20:54:17.982Z,4.05
2023-02-06T20:56:45.516Z,3.75
2023-02-06T20:59:14.646Z,3.63
2023-02-06T21:01:42.268Z,3.88
2023-02-06T21:04:12.155Z,3.67
2023-02-06T21:06:39.749Z,3.33
2023-02-06T21:09:08.076Z,3.25
2023-02-06T21:11:41.983Z,4.10
2023-02-06T21:14:09.478Z,3.45
2023-02-06T21:16:38.201Z,3.78
2023-02-06T21:19:08.566Z,4.13
2023-02-06T21:21:37.095Z,3.90
2023-02-06T21:24:04.630Z,4.28
2023-02-06T21:26:31.788Z,4.55
2023-02-06T21:28:59.863Z,4.53
2023-02-06T21:31:36.014Z,3.30
2023-02-06T21:34:14.386Z,4.25
2023-02-06T21:36:42.254Z,4.10
2023-02-06T21:39:10.106Z,3.33
2023-02-06T21:41:37.151Z,3.53
2023-02-06T21:44:04.568Z,3.45
2023-02-06T21:46:31.759Z,3.60
2023-02-06T21:48:58.938Z,3.42
2023-02-06T21:51:26.354Z,3.25
2023-02-06T21:53:53.466Z,3.20
2023-02-06T21:56:26.028Z,3.00
2023-02-06T21:58:53.353Z,3.42
2023-02-06T22:01:26.464Z,3.63
2023-02-06T22:03:53.972Z,2.95
2023-02-06T22:06:21.094Z,2.97
2023-02-06T22:08:54.367Z,3.10
2023-02-06T22:11:30.263Z,3.17
2023-02-06T22:13:59.471Z,3.30
2023-02-06T22:16:28.686Z,3.50
2023-02-06T22:18:56.389Z,2.95
2023-02-06T22:21:25.514Z,3.10
2023-02-06T22:23:55.539Z,2.92
2023-02-06T22:26:22.581Z,3.95
2023-02-06T22:28:49.698Z,3.10
2023-02-06T22:31:20.038Z,3.35
2023-02-06T22:33:47.455Z,3.45
2023-02-06T22:36:21.845Z,3.15
2023-02-06T22:38:53.746Z,3.22
2023-02-06T22:41:21.065Z,3.33
2023-02-06T22:43:50.438Z,4.22
2023-02-06T22:46:20.956Z,3.55
2023-02-06T22:48:48.235Z,3.25
2023-02-06T22:51:15.562Z,3.55
2023-02-06T22:53:43.164Z,2.58
2023-02-06T22:56:31.437Z,2.78
2023-02-06T22:59:03.960Z,3.03
2023-02-06T23:01:34.460Z,3.13
2023-02-06T23:04:02.725Z,2.58
2023-02-06T23:06:31.240Z,2.83
2023-02-06T23:08:59.372Z,2.92
2023-02-06T23:11:27.034Z,2.65
2023-02-06T23:13:57.970Z,2.50
2023-02-06T23:16:26.026Z,2.30
2023-02-06T23:18:53.274Z,2.47
2023-02-06T23:21:22.532Z,2.53
2023-02-06T23:23:49.585Z,2.72
2023-02-06T23:26:18.755Z,2.60
2023-02-06T23:28:46.195Z,3.33
2023-02-06T23:31:14.487Z,3.22
2023-02-06T23:33:42.076Z,2.40
2023-02-06T23:36:17.454Z,2.22
2023-02-06T23:38:45.365Z,2.53
2023-02-06T23:41:15.532Z,2.50
2023-02-06T23:43:43.052Z,2.40
2023-02-06T23:46:12.449Z,2.63
2023-02-06T23:48:39.962Z,2.80
2023-02-06T23:51:07.660Z,2.70
2023-02-06T23:53:34.706Z,2.85
2023-02-06T23:56:01.708Z,2.72
2023-02-06T23:58:28.622Z,2.40
